createdAt,value
2017-05-18T00:00:15.426Z,17.60
2017-05-18T00:02:42.900Z,17.60
2017-05-18T00:05:10.383Z,17.40
2017-05-18T00:07:38.240Z,17.40
2017-05-18T00:10:05.983Z,17.40
2017-05-18T00:12:33.841Z,17.50
2017-05-18T00:15:01.703Z,17.50
2017-05-18T00:17:29.183Z,17.50
2017-05-18T00:19:57.044Z,17.60
2017-05-18T00:22:25.210Z,17.50
2017-05-18T00:24:53.072Z,17.40
2017-05-18T00:27:20.538Z,17.50
2017-05-18T00:29:48.411Z,17.30
2017-05-18T00:32:16.272Z,17.20
2017-05-18T00:34:44.650Z,17.30
2017-05-18T00:37:12.103Z,17.30
2017-05-18T00:39:39.959Z,17.10
2017-05-18T00:42:07.830Z,17.10
2017-05-18T00:44:35.682Z,17.20
2017-05-18T00:47:03.470Z,17.10
2017-05-18T00:49:31.340Z,16.90
2017-05-18T00:51:59.197Z,16.70
2017-05-18T00:54:27.071Z,16.60
2017-05-18T00:56:54.934Z,16.50
2017-05-18T00:59:23.203Z,16.40
2017-05-18T01:01:51.058Z,16.30
2017-05-18T01:04:18.517Z,16.30
2017-05-18T01:06:45.998Z,16.20
2017-05-18T01:09:13.868Z,16.00
2017-05-18T01:11:42.030Z,16.00
2017-05-18T01:14:09.898Z,15.90
2017-05-18T01:16:37.758Z,16.00
2017-05-18T01:19:05.639Z,16.10
2017-05-18T01:21:33.494Z,16.10
2017-05-18T01:24:01.764Z,16.00
2017-05-18T01:26:29.230Z,16.00
2017-05-18T01:28:56.703Z,15.80
2017-05-18T01:31:24.573Z,15.50
2017-05-18T01:33:52.435Z,15.50
2017-05-18T01:36:20.582Z,15.40
2017-05-18T01:38:48.431Z,15.40
2017-05-18T01:41:16.296Z,15.40
2017-05-18T01:43:44.176Z,15.50
2017-05-18T01:46:12.038Z,15.50
2017-05-18T01:48:40.315Z,15.30
2017-05-18T01:51:08.191Z,15.30
2017-05-18T01:53:36.064Z,15.30
2017-05-18T01:56:03.951Z,15.30
2017-05-18T01:58:31.824Z,15.40
2017-05-18T02:00:59.985Z,15.50
2017-05-18T02:03:27.464Z,15.50
2017-05-18T02:05:55.332Z,15.50
2017-05-18T02:08:23.586Z,15.40
2017-05-18T02:10:51.466Z,15.50
2017-05-18T02:13:19.727Z,15.50
2017-05-18T02:15:47.204Z,15.50
2017-05-18T02:18:15.361Z,15.30
2017-05-18T02:20:43.229Z,15.20
2017-05-18T02:23:10.712Z,15.20
2017-05-18T02:25:38.595Z,15.20
2017-05-18T02:28:06.464Z,15.20
2017-05-18T02:30:34.449Z,15.20
2017-05-18T02:33:02.320Z,14.90
2017-05-18T02:35:30.303Z,14.80
2017-05-18T02:37:58.199Z,14.80
2017-05-18T02:40:26.074Z,14.70
2017-05-18T02:42:54.218Z,14.80
2017-05-18T02:45:22.488Z,14.80
2017-05-18T02:47:50.368Z,14.70
2017-05-18T02:50:18.259Z,14.90
2017-05-18T02:52:46.129Z,14.70
2017-05-18T02:55:13.627Z,14.70
2017-05-18T02:57:41.519Z,14.70
2017-05-18T03:00:09.393Z,14.70
2017-05-18T03:02:37.148Z,14.70
2017-05-18T03:05:04.632Z,14.60
2017-05-18T03:07:32.502Z,14.50
2017-05-18T03:09:59.996Z,14.50
2017-05-18T03:12:27.474Z,14.40
2017-05-18T03:14:55.740Z,14.40
2017-05-18T03:17:23.617Z,14.30
2017-05-18T03:19:51.499Z,14.20
2017-05-18T03:22:19.394Z,14.20
2017-05-18T03:24:47.642Z,14.20
2017-05-18T03:27:15.516Z,14.30
2017-05-18T03:29:43.412Z,14.30
2017-05-18T03:32:10.979Z,14.30
2017-05-18T03:34:38.778Z,14.20
2017-05-18T03:37:06.656Z,14.30
2017-05-18T03:39:34.529Z,14.40
2017-05-18T03:42:02.415Z,14.30
2017-05-18T03:44:29.902Z,14.40
2017-05-18T03:46:57.646Z,14.20
2017-05-18T03:49:25.124Z,14.20
2017-05-18T03:51:53.001Z,14.00
2017-05-18T03:54:20.495Z,14.00
2017-05-18T03:56:47.968Z,14.00
2017-05-18T03:59:16.419Z,14.20
2017-05-18T04:01:44.292Z,14.10
2017-05-18T04:04:12.168Z,14.10
2017-05-18T04:06:40.387Z,14.20
2017-05-18T04:09:07.867Z,14.10
2017-05-18T04:11:36.031Z,14.30
2017-05-18T04:14:04.496Z,14.30
2017-05-18T04:16:32.398Z,14.30
2017-05-18T04:19:00.474Z,14.20
2017-05-18T04:21:28.358Z,14.30
2017-05-18T04:23:56.809Z,14.30
2017-05-18T04:26:24.684Z,14.40
2017-05-18T04:28:52.555Z,14.40
2017-05-18T04:31:20.638Z,14.40
2017-05-18T04:33:48.566Z,14.50
2017-05-18T04:36:16.542Z,14.40
2017-05-18T04:38:44.026Z,14.40
2017-05-18T04:41:11.895Z,14.50
2017-05-18T04:43:39.392Z,14.50
2017-05-18T04:46:06.859Z,14.50
2017-05-18T04:48:35.011Z,14.70
2017-05-18T04:51:02.899Z,14.80
2017-05-18T04:53:30.767Z,14.90
2017-05-18T04:55:58.651Z,15.20
2017-05-18T04:58:26.516Z,15.20
2017-05-18T05:00:54.489Z,15.20
2017-05-18T05:03:21.960Z,15.30
2017-05-18T05:05:49.823Z,15.10
2017-05-18T05:08:17.706Z,15.00
2017-05-18T05:10:45.567Z,15.10
2017-05-18T05:13:13.434Z,15.20
2017-05-18T05:15:41.311Z,15.20
2017-05-18T05:18:09.180Z,15.40
2017-05-18T05:20:37.042Z,15.50
2017-05-18T05:23:04.914Z,15.60
2017-05-18T05:25:32.371Z,15.60
2017-05-18T05:27:59.837Z,15.80
2017-05-18T05:30:28.495Z,16.00
2017-05-18T05:32:56.346Z,16.20
2017-05-18T05:35:25.027Z,16.40
2017-05-18T05:37:52.906Z,16.50
2017-05-18T05:40:20.766Z,16.70
2017-05-18T05:42:48.668Z,16.90
2017-05-18T05:45:16.523Z,17.00
2017-05-18T05:47:44.765Z,17.20
2017-05-18T05:50:12.227Z,17.20
2017-05-18T05:52:40.095Z,17.50
2017-05-18T05:55:07.971Z,17.70
2017-05-18T05:57:35.430Z,17.70
2017-05-18T06:00:03.550Z,17.80
2017-05-18T06:02:31.409Z,17.90
2017-05-18T06:04:58.876Z,17.90
2017-05-18T06:07:26.368Z,18.00
2017-05-18T06:09:54.244Z,18.20
2017-05-18T06:12:22.112Z,18.30
2017-05-18T06:14:50.027Z,18.30
2017-05-18T06:17:17.503Z,18.30
2017-05-18T06:19:44.995Z,18.50
2017-05-18T06:22:12.889Z,18.80
2017-05-18T06:24:41.131Z,18.80
2017-05-18T06:27:09.004Z,18.90
2017-05-18T06:29:36.503Z,18.90
2017-05-18T06:32:04.377Z,19.20
2017-05-18T06:34:32.592Z,19.30
2017-05-18T06:37:00.466Z,19.40
2017-05-18T06:39:28.329Z,19.50
2017-05-18T06:41:56.209Z,19.70
2017-05-18T06:44:24.068Z,19.80
2017-05-18T06:46:52.323Z,20.00
2017-05-18T06:49:19.787Z,20.00
2017-05-18T06:51:47.657Z,20.10
2017-05-18T06:54:15.799Z,20.20
2017-05-18T06:56:43.659Z,20.30
2017-05-18T06:59:11.522Z,20.40
2017-05-18T07:01:39.374Z,20.40
2017-05-18T07:04:07.233Z,20.70
2017-05-18T07:06:35.097Z,20.70
2017-05-18T07:09:03.347Z,20.80
2017-05-18T07:11:31.205Z,20.90
2017-05-18T07:13:59.335Z,21.00
2017-05-18T07:16:26.799Z,21.00
2017-05-18T07:18:54.671Z,21.00
2017-05-18T07:21:22.602Z,21.10
2017-05-18T07:23:50.845Z,21.00
2017-05-18T07:26:19.008Z,21.00
2017-05-18T07:28:46.882Z,21.10
2017-05-18T07:31:14.743Z,21.20
2017-05-18T07:33:42.633Z,21.30
2017-05-18T07:36:10.500Z,21.20
2017-05-18T07:38:38.638Z,21.00
2017-05-18T07:41:06.564Z,21.00
2017-05-18T07:43:34.411Z,21.10
2017-05-18T07:46:02.296Z,21.00
2017-05-18T07:48:30.170Z,21.00
2017-05-18T07:50:57.651Z,21.00
2017-05-18T07:53:25.144Z,21.00
2017-05-18T07:55:53.008Z,20.90
2017-05-18T07:58:20.862Z,20.90
2017-05-18T08:00:48.735Z,21.00
2017-05-18T08:03:16.599Z,21.00
2017-05-18T08:05:44.483Z,20.90
2017-05-18T08:08:12.355Z,21.00
2017-05-18T08:10:40.598Z,21.10
2017-05-18T08:13:08.070Z,21.10
2017-05-18T08:15:35.937Z,21.30
2017-05-18T08:18:03.827Z,21.50
2017-05-18T08:20:31.700Z,21.60
2017-05-18T08:22:59.961Z,21.60
2017-05-18T08:25:27.832Z,21.60
2017-05-18T08:27:56.175Z,21.80
2017-05-18T08:30:24.046Z,22.10
2017-05-18T08:32:51.917Z,22.30
2017-05-18T08:35:19.812Z,22.40
2017-05-18T08:37:48.048Z,22.60
2017-05-18T08:40:15.912Z,22.60
2017-05-18T08:42:43.794Z,22.90
2017-05-18T08:45:11.660Z,23.10
2017-05-18T08:47:39.543Z,23.20
2017-05-18T08:50:07.412Z,23.20
2017-05-18T08:52:35.350Z,23.20
2017-05-18T08:55:03.216Z,23.20
2017-05-18T08:57:31.084Z,23.30
2017-05-18T08:59:58.972Z,23.60
2017-05-18T09:02:26.840Z,23.60
2017-05-18T09:04:54.993Z,23.40
2017-05-18T09:07:22.476Z,23.40
2017-05-18T09:09:50.344Z,23.60
2017-05-18T09:12:17.845Z,23.60
2017-05-18T09:14:45.324Z,23.40
2017-05-18T09:17:13.596Z,23.30
2017-05-18T09:19:41.460Z,23.20
2017-05-18T09:22:09.324Z,23.10
2017-05-18T09:24:36.819Z,23.10
2017-05-18T09:27:04.681Z,23.00
2017-05-18T09:29:32.822Z,22.90
2017-05-18T09:32:00.691Z,22.90
2017-05-18T09:34:28.562Z,22.90
2017-05-18T09:36:56.456Z,22.90
2017-05-18T09:39:23.934Z,22.90
2017-05-18T09:41:52.159Z,23.10
2017-05-18T09:44:20.025Z,23.10
2017-05-18T09:46:47.891Z,23.10
2017-05-18T09:49:15.780Z,23.00
2017-05-18T09:51:43.644Z,22.80
2017-05-18T09:54:11.515Z,22.80
2017-05-18T09:56:39.376Z,22.60
2017-05-18T09:59:07.238Z,22.50
2017-05-18T10:01:35.128Z,22.40
2017-05-18T10:04:02.999Z,22.40
2017-05-18T10:06:31.637Z,22.30
2017-05-18T10:08:59.965Z,22.30
2017-05-18T10:11:27.845Z,22.20
2017-05-18T10:13:55.736Z,22.10
2017-05-18T10:16:23.209Z,22.10
2017-05-18T10:18:51.077Z,21.80
2017-05-18T10:21:18.946Z,21.20
2017-05-18T10:23:46.808Z,21.00
2017-05-18T10:26:14.709Z,20.80
2017-05-18T10:28:42.579Z,20.80
2017-05-18T10:31:10.356Z,20.80
2017-05-18T10:33:38.225Z,20.60
2017-05-18T10:36:05.696Z,20.60
2017-05-18T10:38:33.575Z,20.20
2017-05-18T10:41:01.436Z,20.20
2017-05-18T10:43:29.301Z,20.10
2017-05-18T10:45:57.706Z,20.10
2017-05-18T10:48:25.576Z,20.10
2017-05-18T10:50:53.442Z,20.00
2017-05-18T10:53:21.640Z,19.90
2017-05-18T10:55:49.507Z,20.00
2017-05-18T10:58:17.376Z,19.90
2017-05-18T11:00:45.257Z,19.90
2017-05-18T11:03:13.124Z,19.90
2017-05-18T11:05:41.251Z,19.90
2017-05-18T11:08:09.123Z,19.90
2017-05-18T11:10:36.996Z,19.80
2017-05-18T11:13:04.884Z,19.80
2017-05-18T11:15:32.356Z,19.80
2017-05-18T11:18:00.165Z,19.80
2017-05-18T11:20:28.032Z,19.70
2017-05-18T11:22:55.899Z,19.60
2017-05-18T11:25:23.779Z,19.50
2017-05-18T11:27:51.652Z,19.50
2017-05-18T11:30:20.012Z,19.40
2017-05-18T11:32:47.876Z,19.30
2017-05-18T11:35:15.752Z,19.30
2017-05-18T11:37:43.689Z,19.40
2017-05-18T11:40:11.553Z,19.40
2017-05-18T11:42:39.958Z,19.40
2017-05-18T11:45:07.832Z,19.50
2017-05-18T11:47:35.707Z,19.60
2017-05-18T11:50:03.593Z,19.60
2017-05-18T11:52:31.833Z,19.60
2017-05-18T11:55:00.057Z,19.50
2017-05-18T11:57:27.891Z,19.60
2017-05-18T11:59:55.812Z,19.60
2017-05-18T12:02:23.695Z,19.70
2017-05-18T12:04:51.219Z,19.70
2017-05-18T12:07:19.079Z,19.90
2017-05-18T12:09:46.961Z,19.90
2017-05-18T12:12:14.711Z,19.90
2017-05-18T12:14:42.949Z,20.00
2017-05-18T12:17:10.825Z,20.00
2017-05-18T12:19:38.712Z,20.10
2017-05-18T12:22:06.592Z,20.40
2017-05-18T12:24:34.405Z,20.40
2017-05-18T12:27:02.275Z,20.60
2017-05-18T12:29:30.148Z,20.70
2017-05-18T12:31:58.036Z,20.70
2017-05-18T12:34:26.273Z,20.90
2017-05-18T12:36:54.440Z,20.80
2017-05-18T12:39:22.308Z,20.80
2017-05-18T12:41:49.777Z,20.80
2017-05-18T12:44:17.675Z,20.70
2017-05-18T12:46:45.148Z,20.80
2017-05-18T12:49:13.012Z,20.70
2017-05-18T12:51:40.507Z,20.70
2017-05-18T12:54:07.979Z,20.60
2017-05-18T12:56:35.844Z,20.50
2017-05-18T12:59:03.336Z,20.50
2017-05-18T13:01:31.206Z,20.40
2017-05-18T13:03:59.494Z,20.40
2017-05-18T13:06:27.367Z,20.40
2017-05-18T13:08:55.236Z,20.40
2017-05-18T13:11:23.131Z,20.40
2017-05-18T13:13:50.612Z,20.40
2017-05-18T13:16:18.480Z,20.50
2017-05-18T13:18:46.368Z,20.60
2017-05-18T13:21:14.246Z,20.60
2017-05-18T13:23:42.878Z,20.70
2017-05-18T13:26:10.755Z,20.70
2017-05-18T13:28:38.623Z,20.60
2017-05-18T13:31:06.116Z,20.60
2017-05-18T13:33:33.986Z,20.60
2017-05-18T13:36:01.859Z,20.80
2017-05-18T13:38:29.745Z,20.70
2017-05-18T13:40:57.216Z,20.70
2017-05-18T13:43:25.599Z,20.80
2017-05-18T13:45:53.464Z,20.80
2017-05-18T13:48:21.318Z,20.80
2017-05-18T13:50:49.190Z,21.00
2017-05-18T13:53:17.051Z,21.30
2017-05-18T13:55:45.075Z,21.30
2017-05-18T13:58:12.510Z,21.30
2017-05-18T14:00:40.372Z,21.40
2017-05-18T14:03:08.250Z,21.60
2017-05-18T14:05:36.103Z,21.60
2017-05-18T14:08:04.458Z,21.90
2017-05-18T14:10:32.319Z,21.70
2017-05-18T14:12:59.779Z,21.70
2017-05-18T14:15:27.260Z,21.90
2017-05-18T14:17:55.124Z,22.10
2017-05-18T14:20:22.963Z,22.10
2017-05-18T14:22:50.427Z,22.30
2017-05-18T14:25:18.292Z,22.20
2017-05-18T14:27:46.163Z,22.20
2017-05-18T14:30:14.022Z,22.20
2017-05-18T14:32:42.398Z,22.10
2017-05-18T14:35:10.254Z,22.00
2017-05-18T14:37:37.712Z,22.00
2017-05-18T14:40:05.192Z,22.00
2017-05-18T14:42:33.056Z,22.00
2017-05-18T14:45:00.907Z,22.10
2017-05-18T14:47:29.291Z,22.10
2017-05-18T14:49:56.751Z,22.00
2017-05-18T14:52:24.608Z,21.90
2017-05-18T14:54:52.088Z,21.90
2017-05-18T14:57:19.954Z,21.80
2017-05-18T14:59:47.945Z,21.80
2017-05-18T15:02:15.802Z,22.10
2017-05-18T15:04:43.948Z,22.30
2017-05-18T15:07:11.811Z,22.30
2017-05-18T15:09:39.267Z,22.30
2017-05-18T15:12:07.142Z,22.10
2017-05-18T15:14:34.607Z,22.10
2017-05-18T15:17:02.451Z,22.00
2017-05-18T15:19:30.315Z,22.30
2017-05-18T15:21:57.783Z,22.30
2017-05-18T15:24:25.654Z,22.60
2017-05-18T15:26:53.516Z,22.70
2017-05-18T15:29:21.661Z,22.50
2017-05-18T15:31:49.144Z,22.50
2017-05-18T15:34:16.607Z,22.40
2017-05-18T15:36:44.484Z,22.60
2017-05-18T15:39:12.347Z,22.90
2017-05-18T15:41:40.471Z,22.80
2017-05-18T15:44:08.332Z,22.80
2017-05-18T15:46:36.335Z,22.80
2017-05-18T15:49:04.291Z,22.80
2017-05-18T15:51:31.763Z,22.80
2017-05-18T15:54:00.137Z,22.60
2017-05-18T15:56:27.991Z,22.50
2017-05-18T15:58:55.855Z,22.40
2017-05-18T16:01:23.731Z,22.50
2017-05-18T16:03:51.591Z,22.60
2017-05-18T16:06:19.871Z,22.60
2017-05-18T16:08:47.732Z,22.60
2017-05-18T16:11:15.596Z,22.60
2017-05-18T16:13:43.475Z,22.40
2017-05-18T16:16:11.327Z,22.50
2017-05-18T16:18:39.484Z,22.50
2017-05-18T16:21:07.343Z,22.40
2017-05-18T16:23:35.208Z,22.40
2017-05-18T16:26:03.088Z,22.40
2017-05-18T16:28:30.942Z,22.40
2017-05-18T16:30:59.095Z,22.30
2017-05-18T16:33:27.326Z,22.20
2017-05-18T16:35:55.187Z,22.30
2017-05-18T16:38:23.054Z,22.20
2017-05-18T16:40:50.915Z,22.30
2017-05-18T16:43:18.652Z,22.30
2017-05-18T16:45:46.521Z,22.10
2017-05-18T16:48:14.389Z,22.10
2017-05-18T16:50:42.264Z,22.20
2017-05-18T16:53:10.132Z,22.20
2017-05-18T16:55:37.876Z,22.20
2017-05-18T16:58:05.735Z,22.30
2017-05-18T17:00:33.195Z,22.30
2017-05-18T17:03:01.440Z,22.20
2017-05-18T17:05:29.298Z,22.20
2017-05-18T17:07:57.651Z,22.10
2017-05-18T17:10:25.117Z,22.10
2017-05-18T17:12:52.976Z,22.00
2017-05-18T17:15:20.851Z,21.90
2017-05-18T17:17:48.712Z,21.90
2017-05-18T17:20:17.083Z,21.90
2017-05-18T17:22:44.941Z,21.80
2017-05-18T17:25:12.796Z,21.80
2017-05-18T17:27:40.285Z,21.80
2017-05-18T17:30:08.148Z,21.90
2017-05-18T17:32:36.011Z,21.90
2017-05-18T17:35:03.892Z,21.80
2017-05-18T17:37:31.759Z,21.70
2017-05-18T17:39:59.241Z,21.70
2017-05-18T17:42:27.468Z,21.80
2017-05-18T17:44:55.331Z,21.90
2017-05-18T17:47:22.807Z,21.90
2017-05-18T17:49:50.671Z,21.70
2017-05-18T17:52:18.936Z,21.60
2017-05-18T17:54:47.177Z,21.60
2017-05-18T17:57:15.035Z,21.80
2017-05-18T17:59:42.923Z,21.70
2017-05-18T18:02:10.393Z,21.70
2017-05-18T18:04:38.142Z,21.60
2017-05-18T18:07:05.606Z,21.50
2017-05-18T18:09:33.071Z,21.50
2017-05-18T18:12:00.548Z,21.50
2017-05-18T18:14:28.408Z,21.40
2017-05-18T18:16:56.567Z,21.40
2017-05-18T18:19:24.423Z,21.40
2017-05-18T18:21:51.888Z,21.40
2017-05-18T18:24:19.368Z,21.40
2017-05-18T18:26:47.231Z,21.30
2017-05-18T18:29:15.380Z,21.30
2017-05-18T18:31:43.244Z,21.30
2017-05-18T18:34:10.703Z,21.30
2017-05-18T18:36:38.681Z,21.30
2017-05-18T18:39:06.553Z,21.20
2017-05-18T18:41:34.420Z,21.20
2017-05-18T18:44:01.907Z,21.20
2017-05-18T18:46:29.766Z,21.10
2017-05-18T18:48:57.917Z,21.00
2017-05-18T18:51:25.787Z,21.00
2017-05-18T18:53:53.650Z,20.90
2017-05-18T18:56:21.543Z,20.90
2017-05-18T18:58:49.415Z,20.80
2017-05-18T19:01:17.855Z,20.70
2017-05-18T19:03:45.715Z,20.60
2017-05-18T19:06:13.335Z,20.70
2017-05-18T19:08:41.230Z,20.30
2017-05-18T19:11:08.703Z,20.30
2017-05-18T19:13:36.820Z,20.30
2017-05-18T19:16:04.292Z,20.30
2017-05-18T19:18:32.160Z,20.20
2017-05-18T19:21:00.048Z,20.20
2017-05-18T19:23:27.916Z,20.10
2017-05-18T19:25:56.109Z,20.00
2017-05-18T19:28:24.493Z,20.00
2017-05-18T19:30:52.358Z,19.90
2017-05-18T19:33:20.252Z,19.80
2017-05-18T19:35:47.728Z,19.80
2017-05-18T19:38:15.877Z,19.60
2017-05-18T19:40:44.399Z,19.60
2017-05-18T19:43:13.409Z,19.60
2017-05-18T19:45:42.343Z,19.60
2017-05-18T19:48:10.445Z,19.50
2017-05-18T19:50:38.709Z,19.50
2017-05-18T19:53:06.214Z,19.50
2017-05-18T19:55:33.952Z,19.30
2017-05-18T19:58:01.691Z,19.00
2017-05-18T20:00:30.176Z,18.80
2017-05-18T20:02:59.297Z,18.80
2017-05-18T20:05:28.204Z,18.70
2017-05-18T20:07:57.296Z,18.50
2017-05-18T20:10:25.895Z,18.50
2017-05-18T20:12:54.382Z,18.40
2017-05-18T20:15:22.409Z,18.30
2017-05-18T20:17:49.982Z,18.30
2017-05-18T20:20:18.091Z,18.20
2017-05-18T20:22:45.645Z,18.10
2017-05-18T20:25:14.227Z,18.20
2017-05-18T20:27:42.539Z,18.00
2017-05-18T20:30:11.457Z,18.00
2017-05-18T20:32:39.641Z,18.10
2017-05-18T20:35:07.847Z,18.00
2017-05-18T20:37:36.790Z,17.90
2017-05-18T20:40:05.608Z,17.80
2017-05-18T20:42:34.080Z,17.90
2017-05-18T20:45:02.155Z,17.70
2017-05-18T20:47:30.130Z,17.60
2017-05-18T20:49:59.038Z,17.40
2017-05-18T20:52:27.544Z,17.30
2017-05-18T20:54:56.285Z,17.30
2017-05-18T20:57:24.399Z,17.20
2017-05-18T20:59:53.089Z,17.20
2017-05-18T21:02:22.256Z,17.30
2017-05-18T21:04:50.125Z,17.30
2017-05-18T21:07:18.316Z,17.30
2017-05-18T21:09:46.297Z,17.20
2017-05-18T21:12:14.445Z,17.00
2017-05-18T21:14:43.094Z,17.20
2017-05-18T21:17:11.396Z,17.30
2017-05-18T21:19:39.462Z,17.30
2017-05-18T21:22:07.471Z,17.20
2017-05-18T21:24:35.633Z,17.10
2017-05-18T21:27:04.059Z,17.00
2017-05-18T21:29:34.391Z,16.90
2017-05-18T21:32:02.261Z,16.90
2017-05-18T21:34:30.874Z,17.10
2017-05-18T21:36:58.834Z,17.10
2017-05-18T21:39:27.234Z,17.00
2017-05-18T21:41:55.651Z,17.10
2017-05-18T21:44:24.613Z,17.10
2017-05-18T21:46:52.412Z,17.10
2017-05-18T21:49:19.916Z,17.00
2017-05-18T21:51:48.286Z,16.90
2017-05-18T21:54:16.317Z,16.90
2017-05-18T21:56:44.815Z,17.10
2017-05-18T21:59:12.911Z,17.20
2017-05-18T22:01:41.086Z,17.20
2017-05-18T22:04:09.258Z,17.20
2017-05-18T22:06:37.382Z,16.90
2017-05-18T22:09:05.019Z,16.90
2017-05-18T22:11:32.942Z,16.80
2017-05-18T22:14:00.945Z,16.90
2017-05-18T22:16:29.295Z,16.90
2017-05-18T22:18:57.571Z,16.90
2017-05-18T22:21:25.438Z,16.90
2017-05-18T22:23:53.354Z,16.80
2017-05-18T22:26:21.105Z,16.80
2017-05-18T22:28:49.519Z,16.60
2017-05-18T22:31:17.897Z,16.40
2017-05-18T22:33:45.788Z,16.40
2017-05-18T22:36:13.707Z,16.30
2017-05-18T22:38:41.733Z,16.20
2017-05-18T22:41:10.136Z,16.20
2017-05-18T22:43:38.235Z,16.20
2017-05-18T22:46:05.884Z,16.20
2017-05-18T22:48:34.417Z,16.20
2017-05-18T22:51:02.501Z,16.20
2017-05-18T22:53:31.037Z,16.10
2017-05-18T22:55:58.520Z,16.10
2017-05-18T22:58:26.575Z,16.10
2017-05-18T23:00:55.051Z,16.10
2017-05-18T23:03:23.368Z,16.20
2017-05-18T23:05:52.321Z,16.20
2017-05-18T23:08:20.662Z,16.20
2017-05-18T23:10:49.135Z,16.40
2017-05-18T23:13:17.420Z,16.40
2017-05-18T23:15:45.661Z,16.30
2017-05-18T23:18:13.782Z,16.20
2017-05-18T23:20:41.264Z,16.20
2017-05-18T23:23:09.122Z,16.20
2017-05-18T23:25:37.007Z,16.10
2017-05-18T23:28:04.877Z,16.20
2017-05-18T23:30:32.637Z,16.20
2017-05-18T23:33:00.502Z,16.40
2017-05-18T23:35:28.371Z,16.20
2017-05-18T23:37:56.471Z,16.30
2017-05-18T23:40:24.335Z,16.30
2017-05-18T23:42:52.199Z,16.40
2017-05-18T23:45:20.087Z,16.50
2017-05-18T23:47:47.951Z,16.90
2017-05-18T23:50:16.463Z,16.80
2017-05-18T23:52:44.435Z,16.60
2017-05-18T23:55:12.298Z,16.50
2017-05-18T23:57:40.180Z,16.70
